createdAt,value
2022-08-09T00:01:04.910Z,56.48
2022-08-09T00:04:05.983Z,56.76
2022-08-09T00:06:35.236Z,56.90
2022-08-09T00:09:07.558Z,56.74
2022-08-09T00:12:02.740Z,56.63
2022-08-09T00:14:38.474Z,56.41
2022-08-09T00:18:04.347Z,56.49
2022-08-09T00:20:04.748Z,56.95
2022-08-09T00:22:37.256Z,57.21
2022-08-09T00:25:12.951Z,57.38
2022-08-09T00:27:47.978Z,57.63
2022-08-09T00:30:26.058Z,57.03
2022-08-09T00:32:58.978Z,56.51
2022-08-09T00:35:43.207Z,56.93
2022-08-09T00:38:16.342Z,57.33
2022-08-09T00:40:53.861Z,56.87
2022-08-09T00:44:16.635Z,56.97
2022-08-09T00:46:55.364Z,57.18
2022-08-09T00:49:12.697Z,57.22
2022-08-09T00:51:55.853Z,57.16
2022-08-09T00:54:35.145Z,57.08
2022-08-09T00:57:10.973Z,57.54
2022-08-09T00:59:46.299Z,57.44
2022-08-09T01:02:22.723Z,56.93
2022-08-09T01:05:02.648Z,56.92
2022-08-09T01:08:01.009Z,57.02
2022-08-09T01:10:39.305Z,57.13
2022-08-09T01:13:22.144Z,57.38
2022-08-09T01:15:57.833Z,57.36
2022-08-09T01:18:33.635Z,57.30
2022-08-09T01:21:18.541Z,57.70
2022-08-09T01:24:05.696Z,57.79
2022-08-09T01:26:59.227Z,57.95
2022-08-09T01:29:41.221Z,57.98
2022-08-09T01:32:34.088Z,57.70
2022-08-09T01:35:28.620Z,57.93
2022-08-09T01:38:10.502Z,57.66
2022-08-09T01:40:52.506Z,57.38
2022-08-09T01:43:26.047Z,57.09
2022-08-09T01:45:59.208Z,57.41
2022-08-09T01:48:32.718Z,57.57
2022-08-09T01:51:06.539Z,57.93
2022-08-09T01:53:43.706Z,57.94
2022-08-09T01:56:22.552Z,57.80
2022-08-09T01:58:56.563Z,57.95
2022-08-09T02:01:59.622Z,57.40
2022-08-09T02:04:26.174Z,57.56
2022-08-09T02:07:18.370Z,58.08
2022-08-09T02:10:05.489Z,58.08
2022-08-09T02:12:39.464Z,57.86
2022-08-09T02:15:17.141Z,58.39
2022-08-09T02:18:00.425Z,58.33
2022-08-09T02:20:43.270Z,58.29
2022-08-09T02:23:23.156Z,58.34
2022-08-09T02:25:57.744Z,58.29
2022-08-09T02:28:35.382Z,58.69
2022-08-09T02:31:09.907Z,58.50
2022-08-09T02:34:07.212Z,58.72
2022-08-09T02:36:42.186Z,58.78
2022-08-09T02:39:20.245Z,59.03
2022-08-09T02:42:07.827Z,59.15
2022-08-09T02:44:42.803Z,58.59
2022-08-09T02:47:17.914Z,58.34
2022-08-09T02:50:02.043Z,58.38
2022-08-09T02:52:39.930Z,58.38
2022-08-09T02:55:20.072Z,58.32
2022-08-09T02:58:00.476Z,57.61
2022-08-09T03:00:58.570Z,58.36
2022-08-09T03:04:13.179Z,58.36
2022-08-09T03:06:27.467Z,58.26
2022-08-09T03:09:01.583Z,58.20
2022-08-09T03:12:11.045Z,58.13
2022-08-09T03:14:32.026Z,58.36
2022-08-09T03:17:05.508Z,58.45
2022-08-09T03:19:58.201Z,58.24
2022-08-09T03:22:41.989Z,58.88
2022-08-09T03:25:26.087Z,58.78
2022-08-09T03:28:01.049Z,58.31
2022-08-09T03:30:36.808Z,58.62
2022-08-09T03:33:17.835Z,58.83
2022-08-09T03:36:12.760Z,59.01
2022-08-09T03:38:46.636Z,58.86
2022-08-09T03:41:18.980Z,58.48
2022-08-09T03:44:07.587Z,58.38
2022-08-09T03:46:41.332Z,59.00
2022-08-09T03:49:16.679Z,59.46
2022-08-09T03:52:00.090Z,59.40
2022-08-09T03:54:38.532Z,59.27
2022-08-09T03:57:20.292Z,59.49
2022-08-09T04:00:00.521Z,59.61
2022-08-09T04:02:34.776Z,60.25
2022-08-09T04:05:17.094Z,60.24
2022-08-09T04:08:00.576Z,60.60
2022-08-09T04:10:33.074Z,60.84
2022-08-09T04:13:11.583Z,61.45
2022-08-09T04:16:20.659Z,61.60
2022-08-09T04:18:38.187Z,61.23
2022-08-09T04:21:11.586Z,61.01
2022-08-09T04:23:54.381Z,60.82
2022-08-09T04:26:35.235Z,61.47
2022-08-09T04:29:15.488Z,62.02
2022-08-09T04:31:48.331Z,61.26
2022-08-09T04:34:30.785Z,61.41
2022-08-09T04:37:07.212Z,61.32
2022-08-09T04:39:41.006Z,61.32
2022-08-09T04:42:15.910Z,61.13
2022-08-09T04:44:50.839Z,60.60
2022-08-09T04:47:25.840Z,60.99
2022-08-09T04:50:05.886Z,60.87
2022-08-09T04:52:42.264Z,61.01
2022-08-09T04:55:15.468Z,62.36
2022-08-09T04:57:59.220Z,62.22
2022-08-09T05:00:36.044Z,62.28
2022-08-09T05:03:30.665Z,62.70
2022-08-09T05:06:04.584Z,62.21
2022-08-09T05:08:44.001Z,62.11
2022-08-09T05:11:20.065Z,62.31
2022-08-09T05:13:54.941Z,62.02
2022-08-09T05:16:31.507Z,61.59
2022-08-09T05:19:04.208Z,61.83
2022-08-09T05:21:47.241Z,62.25
2022-08-09T05:24:28.114Z,63.14
2022-08-09T05:27:00.288Z,63.51
2022-08-09T05:29:35.525Z,63.50
2022-08-09T05:32:08.630Z,63.75
2022-08-09T05:34:43.005Z,63.88
2022-08-09T05:37:18.749Z,64.08
2022-08-09T05:39:51.109Z,64.20
2022-08-09T05:42:28.685Z,63.79
2022-08-09T05:45:02.235Z,63.51
2022-08-09T05:47:35.210Z,62.75
2022-08-09T05:51:30.270Z,63.57
2022-08-09T05:53:57.242Z,63.12
2022-08-09T05:56:29.113Z,64.63
2022-08-09T05:59:01.943Z,64.57
2022-08-09T06:01:42.260Z,64.37
2022-08-09T06:04:15.550Z,63.64
2022-08-09T06:07:21.725Z,62.85
2022-08-09T06:10:04.349Z,61.96
2022-08-09T06:13:02.826Z,62.03
2022-08-09T06:15:37.625Z,63.41
2022-08-09T06:18:10.261Z,62.66
2022-08-09T06:20:43.587Z,62.05
2022-08-09T06:23:58.951Z,63.09
2022-08-09T06:26:28.192Z,63.68
2022-08-09T06:29:05.448Z,62.56
2022-08-09T06:31:39.709Z,62.89
2022-08-09T06:34:30.734Z,61.56
2022-08-09T06:37:03.067Z,62.57
2022-08-09T06:40:00.645Z,62.48
2022-08-09T06:43:03.141Z,62.99
2022-08-09T06:46:07.662Z,63.95
2022-08-09T06:49:00.227Z,60.89
2022-08-09T06:51:45.964Z,60.72
2022-08-09T06:54:31.544Z,61.60
2022-08-09T06:57:13.553Z,62.40
2022-08-09T07:00:56.314Z,62.40
2022-08-09T07:02:54.156Z,63.01
2022-08-09T07:05:58.214Z,63.27
2022-08-09T07:08:41.330Z,62.95
2022-08-09T07:11:25.812Z,62.95
2022-08-09T07:14:26.777Z,62.90
2022-08-09T07:17:08.962Z,62.83
2022-08-09T07:19:50.619Z,63.67
2022-08-09T07:22:35.187Z,63.83
2022-08-09T07:25:15.522Z,64.15
2022-08-09T07:27:58.606Z,64.70
2022-08-09T07:30:44.124Z,64.51
2022-08-09T07:33:19.385Z,64.50
2022-08-09T07:35:53.833Z,64.42
2022-08-09T07:38:31.098Z,64.59
2022-08-09T07:41:11.786Z,63.20
2022-08-09T07:43:49.842Z,63.17
2022-08-09T07:46:29.631Z,63.20
2022-08-09T07:49:02.537Z,63.44
2022-08-09T07:52:06.333Z,63.37
2022-08-09T07:54:31.212Z,62.69
2022-08-09T07:57:04.397Z,62.65
2022-08-09T07:59:50.984Z,61.91
2022-08-09T08:02:47.914Z,61.50
2022-08-09T08:05:20.240Z,60.11
2022-08-09T08:08:44.080Z,59.36
2022-08-09T08:11:03.145Z,56.99
2022-08-09T08:13:40.056Z,56.04
2022-08-09T08:16:31.325Z,58.24
2022-08-09T08:19:04.440Z,57.66
2022-08-09T08:21:39.567Z,56.39
2022-08-09T08:24:16.568Z,55.05
2022-08-09T08:26:55.692Z,54.32
2022-08-09T08:29:39.507Z,54.67
2022-08-09T08:32:28.754Z,55.97
2022-08-09T08:35:02.804Z,52.45
2022-08-09T08:37:41.453Z,51.40
2022-08-09T08:40:27.054Z,52.23
2022-08-09T08:43:02.423Z,52.70
2022-08-09T08:45:38.046Z,51.48
2022-08-09T08:48:19.323Z,51.81
2022-08-09T08:50:52.183Z,50.91
2022-08-09T08:53:32.194Z,48.61
2022-08-09T08:56:13.665Z,47.92
2022-08-09T08:58:57.261Z,46.91
2022-08-09T09:01:35.393Z,46.82
2022-08-09T09:04:17.659Z,46.64
2022-08-09T09:07:03.125Z,46.15
2022-08-09T09:09:58.542Z,45.01
2022-08-09T09:12:35.527Z,45.56
2022-08-09T09:15:09.496Z,45.56
2022-08-09T09:17:49.111Z,46.04
2022-08-09T09:20:25.879Z,46.58
2022-08-09T09:23:01.874Z,45.20
2022-08-09T09:26:01.265Z,45.95
2022-08-09T09:29:01.959Z,45.48
2022-08-09T09:32:03.828Z,46.67
2022-08-09T09:34:18.791Z,44.98
2022-08-09T09:36:54.077Z,44.77
2022-08-09T09:39:54.583Z,44.98
2022-08-09T09:42:27.832Z,43.48
2022-08-09T09:45:03.183Z,46.09
2022-08-09T09:47:47.850Z,44.20
2022-08-09T09:50:49.584Z,44.12
2022-08-09T09:53:57.811Z,44.64
2022-08-09T09:56:19.874Z,44.19
2022-08-09T09:59:04.861Z,45.36
2022-08-09T10:01:40.736Z,45.64
2022-08-09T10:04:22.910Z,44.88
2022-08-09T10:07:10.095Z,44.92
2022-08-09T10:09:54.729Z,45.25
2022-08-09T10:12:28.546Z,42.78
2022-08-09T10:15:17.565Z,41.54
2022-08-09T10:18:13.811Z,41.34
2022-08-09T10:20:46.665Z,41.51
2022-08-09T10:23:22.711Z,40.71
2022-08-09T10:26:06.378Z,40.41
2022-08-09T10:28:48.869Z,40.15
2022-08-09T10:34:33.726Z,40.59
2022-08-09T10:37:09.861Z,38.96
2022-08-09T10:39:49.273Z,38.58
2022-08-09T10:42:27.012Z,37.89
2022-08-09T10:45:01.892Z,38.20
2022-08-09T10:48:19.562Z,38.38
2022-08-09T10:51:14.909Z,37.46
2022-08-09T10:53:58.378Z,38.63
2022-08-09T10:56:35.942Z,38.33
2022-08-09T10:59:55.682Z,37.72
2022-08-09T11:03:14.939Z,37.34
2022-08-09T11:05:33.275Z,36.62
2022-08-09T11:08:35.738Z,36.27
2022-08-09T11:11:16.303Z,35.67
2022-08-09T11:14:08.972Z,35.54
2022-08-09T11:16:48.557Z,36.12
2022-08-09T11:20:11.088Z,36.33
2022-08-09T11:23:10.194Z,36.91
2022-08-09T11:25:48.780Z,35.82
2022-08-09T11:28:55.750Z,36.87
2022-08-09T11:31:57.021Z,36.35
2022-08-09T11:34:43.825Z,37.83
2022-08-09T11:37:31.320Z,39.59
2022-08-09T11:40:17.833Z,38.38
2022-08-09T11:42:51.836Z,37.92
2022-08-09T11:45:37.738Z,37.21
2022-08-09T11:48:27.011Z,37.37
2022-08-09T11:52:48.858Z,36.12
2022-08-09T11:54:21.586Z,36.69
2022-08-09T11:57:47.510Z,36.70
2022-08-09T12:00:31.787Z,36.35
2022-08-09T12:03:31.867Z,36.50
2022-08-09T12:05:58.788Z,36.26
2022-08-09T12:08:31.863Z,36.46
2022-08-09T12:11:04.869Z,36.69
2022-08-09T12:14:10.712Z,37.07
2022-08-09T12:16:41.450Z,36.55
2022-08-09T12:19:15.456Z,36.43
2022-08-09T12:21:51.778Z,37.36
2022-08-09T12:24:25.800Z,38.20
2022-08-09T12:29:09.805Z,37.23
2022-08-09T12:30:35.243Z,36.60
2022-08-09T12:33:02.094Z,36.03
2022-08-09T12:35:40.733Z,36.56
2022-08-09T12:38:37.313Z,36.31
2022-08-09T12:41:10.533Z,35.31
2022-08-09T12:44:06.042Z,34.50
2022-08-09T12:46:37.759Z,34.25
2022-08-09T12:49:10.623Z,34.83
2022-08-09T12:52:02.541Z,35.73
2022-08-09T12:55:03.321Z,35.48
2022-08-09T12:57:47.487Z,34.55
2022-08-09T13:00:25.303Z,34.59
2022-08-09T13:02:59.485Z,33.63
2022-08-09T13:05:52.613Z,34.28
2022-08-09T13:08:40.395Z,33.84
2022-08-09T13:11:23.273Z,33.65
2022-08-09T13:14:36.824Z,32.15
2022-08-09T13:16:53.614Z,32.71
2022-08-09T13:20:06.556Z,31.77
2022-08-09T13:22:37.419Z,31.17
2022-08-09T13:25:15.966Z,32.20
2022-08-09T13:27:55.961Z,32.16
2022-08-09T13:30:51.391Z,31.81
2022-08-09T13:33:53.176Z,32.63
2022-08-09T13:36:24.500Z,32.99
2022-08-09T13:41:46.172Z,32.95
2022-08-09T13:42:11.837Z,31.86
2022-08-09T13:44:48.679Z,32.29
2022-08-09T13:47:33.207Z,33.07
2022-08-09T13:50:30.549Z,33.09
2022-08-09T13:53:03.790Z,33.15
2022-08-09T13:55:36.966Z,33.00
2022-08-09T13:58:11.673Z,33.44
2022-08-09T14:00:50.567Z,33.99
2022-08-09T14:04:02.689Z,34.07
2022-08-09T14:06:26.676Z,35.25
2022-08-09T14:09:01.775Z,35.80
2022-08-09T14:11:41.353Z,34.14
2022-08-09T14:14:26.108Z,35.07
2022-08-09T14:17:02.093Z,35.84
2022-08-09T14:19:34.661Z,35.47
2022-08-09T14:22:07.997Z,34.95
2022-08-09T14:24:53.480Z,34.88
2022-08-09T14:27:26.742Z,34.77
2022-08-09T14:30:34.645Z,36.47
2022-08-09T14:32:51.403Z,36.20
2022-08-09T14:35:24.063Z,35.56
2022-08-09T14:38:10.969Z,34.51
2022-08-09T14:41:02.372Z,35.22
2022-08-09T14:43:47.268Z,34.02
2022-08-09T14:46:57.427Z,32.87
2022-08-09T14:49:13.984Z,32.72
2022-08-09T14:51:48.769Z,32.71
2022-08-09T14:54:22.517Z,32.47
2022-08-09T14:57:00.264Z,33.62
2022-08-09T14:59:33.096Z,32.74
2022-08-09T15:02:12.459Z,33.28
2022-08-09T15:04:45.042Z,33.72
2022-08-09T15:07:20.202Z,32.39
2022-08-09T15:10:07.858Z,32.35
2022-08-09T15:12:44.799Z,33.46
2022-08-09T15:15:17.645Z,32.28
2022-08-09T15:17:52.896Z,32.85
2022-08-09T15:22:00.966Z,33.58
2022-08-09T15:24:02.369Z,34.53
2022-08-09T15:26:18.922Z,34.44
2022-08-09T15:29:05.233Z,33.27
2022-08-09T15:31:41.530Z,33.05
2022-08-09T15:34:32.096Z,33.67
2022-08-09T15:37:38.018Z,33.36
2022-08-09T15:40:22.166Z,34.53
2022-08-09T15:42:57.428Z,34.49
2022-08-09T15:45:30.168Z,34.43
2022-08-09T15:48:07.866Z,34.65
2022-08-09T15:50:55.546Z,34.59
2022-08-09T15:54:05.444Z,34.78
2022-08-09T15:56:21.368Z,35.04
2022-08-09T15:59:02.446Z,35.15
2022-08-09T16:01:35.254Z,35.74
2022-08-09T16:04:13.537Z,36.10
2022-08-09T16:50:31.986Z,38.80
2022-08-09T16:52:40.836Z,39.46
2022-08-09T16:55:18.150Z,40.11
2022-08-09T16:58:08.094Z,40.30
2022-08-09T17:00:42.839Z,40.60
2022-08-09T17:03:21.562Z,40.98
2022-08-09T17:06:08.548Z,40.84
2022-08-09T17:08:58.915Z,41.34
2022-08-09T17:11:41.751Z,41.16
2022-08-09T17:14:26.259Z,41.04
2022-08-09T17:17:03.878Z,41.47
2022-08-09T17:20:29.757Z,41.72
2022-08-09T17:22:52.173Z,41.89
2022-08-09T17:25:25.760Z,42.07
2022-08-09T17:28:08.463Z,42.20
2022-08-09T17:30:47.650Z,42.49
2022-08-09T17:33:23.017Z,42.99
2022-08-09T17:35:55.413Z,42.91
2022-08-09T17:38:30.992Z,42.71
2022-08-09T17:41:06.245Z,43.13
2022-08-09T17:43:40.003Z,43.32
2022-08-09T17:46:12.595Z,43.37
2022-08-09T17:48:51.924Z,43.69
2022-08-09T17:51:25.165Z,43.64
2022-08-09T17:54:03.908Z,43.78
2022-08-09T17:56:38.102Z,43.57
2022-08-09T17:59:16.956Z,43.53
2022-08-09T18:02:07.433Z,44.14
2022-08-09T18:04:43.472Z,44.20
2022-08-09T18:07:23.254Z,44.36
2022-08-09T18:10:03.964Z,44.84
2022-08-09T18:12:40.702Z,44.97
2022-08-09T18:16:05.592Z,45.42
2022-08-09T18:18:25.351Z,45.12
2022-08-09T18:21:18.843Z,45.59
2022-08-09T18:24:11.324Z,45.55
2022-08-09T18:26:46.665Z,45.72
2022-08-09T18:30:40.181Z,46.00
2022-08-09T18:32:13.879Z,46.24
2022-08-09T18:34:51.490Z,46.27
2022-08-09T18:37:48.993Z,46.43
2022-08-09T18:40:20.121Z,47.98
2022-08-09T18:42:59.253Z,47.63
2022-08-09T18:46:47.209Z,47.60
2022-08-09T18:48:30.269Z,47.94
2022-08-09T18:51:06.052Z,48.72
2022-08-09T18:54:00.530Z,49.29
2022-08-09T18:56:35.818Z,48.83
2022-08-09T18:59:08.541Z,48.75
2022-08-09T19:01:45.865Z,49.12
2022-08-09T19:04:34.671Z,49.27
2022-08-09T19:07:08.530Z,49.54
2022-08-09T19:10:13.778Z,49.57
2022-08-09T19:12:36.967Z,49.75
2022-08-09T19:15:12.440Z,49.82
2022-08-09T19:17:56.115Z,49.72
2022-08-09T19:20:34.390Z,49.95
2022-08-09T19:23:16.504Z,49.90
2022-08-09T19:26:02.127Z,50.39
2022-08-09T19:28:38.286Z,50.91
2022-08-09T19:31:15.062Z,51.34
2022-08-09T19:33:49.793Z,50.91
2022-08-09T19:36:23.443Z,50.66
2022-08-09T19:39:05.582Z,51.10
2022-08-09T19:41:42.271Z,50.99
2022-08-09T19:44:17.687Z,51.09
2022-08-09T19:46:53.239Z,51.78
2022-08-09T19:50:07.564Z,52.16
2022-08-09T19:52:20.286Z,52.07
2022-08-09T19:54:52.868Z,52.20
2022-08-09T19:57:26.057Z,52.44
2022-08-09T20:00:06.608Z,52.67
2022-08-09T20:04:07.140Z,52.39
2022-08-09T20:05:46.401Z,52.55
2022-08-09T20:08:25.069Z,52.93
2022-08-09T20:11:06.304Z,53.00
2022-08-09T20:13:39.151Z,53.59
2022-08-09T20:16:32.901Z,53.34
2022-08-09T20:19:47.423Z,53.19
2022-08-09T20:22:00.123Z,53.21
2022-08-09T20:24:34.140Z,53.40
2022-08-09T20:27:08.370Z,53.61
2022-08-09T20:29:42.836Z,53.42
2022-08-09T20:32:29.245Z,54.19
2022-08-09T20:35:05.763Z,54.46
2022-08-09T20:38:21.566Z,54.44
2022-08-09T20:40:34.130Z,54.75
2022-08-09T20:43:18.383Z,55.27
2022-08-09T20:46:00.238Z,55.92
2022-08-09T20:48:50.760Z,56.16
2022-08-09T20:51:30.692Z,56.23
2022-08-09T20:54:18.028Z,56.37
2022-08-09T20:56:54.158Z,56.64
2022-08-09T21:00:20.138Z,57.18
2022-08-09T21:02:21.779Z,56.98
2022-08-09T21:05:57.690Z,56.58
2022-08-09T21:07:50.075Z,56.79
2022-08-09T21:10:23.241Z,56.79
2022-08-09T21:13:03.157Z,57.26
2022-08-09T21:15:37.293Z,57.45
2022-08-09T21:18:27.622Z,57.18
2022-08-09T21:21:00.418Z,56.89
2022-08-09T21:23:51.353Z,56.94
2022-08-09T21:26:24.566Z,57.25
2022-08-09T21:28:57.124Z,57.47
2022-08-09T21:31:48.039Z,57.77
2022-08-09T21:34:29.232Z,57.77
2022-08-09T21:37:04.164Z,58.06
2022-08-09T21:39:51.296Z,58.39
2022-08-09T21:42:28.372Z,58.38
2022-08-09T21:45:02.001Z,58.26
2022-08-09T21:47:36.529Z,58.65
2022-08-09T21:50:17.643Z,58.89
2022-08-09T21:52:55.956Z,58.75
2022-08-09T21:55:29.367Z,58.75
2022-08-09T21:58:07.363Z,58.81
2022-08-09T22:00:48.631Z,58.54
2022-08-09T22:03:26.151Z,58.61
2022-08-09T22:05:59.881Z,59.05
2022-08-09T22:08:32.708Z,59.28
2022-08-09T22:12:06.550Z,59.59
2022-08-09T22:14:00.954Z,59.32
2022-08-09T22:16:37.517Z,58.38
2022-08-09T22:19:57.676Z,58.56
2022-08-09T22:22:05.196Z,58.41
2022-08-09T22:24:37.407Z,58.53
2022-08-09T22:27:25.574Z,58.83
2022-08-09T22:29:58.065Z,59.18
2022-08-09T22:32:34.743Z,59.42
2022-08-09T22:36:03.121Z,59.31
2022-08-09T22:38:07.398Z,58.98
2022-08-09T22:40:40.297Z,58.96
2022-08-09T22:44:01.495Z,59.02
2022-08-09T22:48:11.470Z,59.19
2022-08-09T22:49:10.103Z,59.33
2022-08-09T22:51:49.887Z,59.52
2022-08-09T22:54:30.397Z,59.75
2022-08-09T22:57:04.560Z,59.93
2022-08-09T22:59:57.902Z,59.99
2022-08-09T23:02:30.460Z,60.03
2022-08-09T23:05:05.995Z,60.28
2022-08-09T23:08:23.174Z,60.59
2022-08-09T23:10:49.682Z,60.79
2022-08-09T23:13:22.286Z,60.96
2022-08-09T23:16:03.351Z,61.08
2022-08-09T23:18:36.750Z,61.16
2022-08-09T23:21:10.048Z,61.27
2022-08-09T23:23:43.932Z,61.17
2022-08-09T23:26:38.064Z,60.97
2022-08-09T23:29:15.679Z,60.92
2022-08-09T23:31:51.304Z,60.97
2022-08-09T23:34:27.054Z,61.08
2022-08-09T23:36:59.897Z,61.06
2022-08-09T23:39:32.334Z,60.83
2022-08-09T23:42:05.643Z,61.28
2022-08-09T23:44:38.195Z,61.38
2022-08-09T23:47:11.552Z,61.47
2022-08-09T23:49:43.794Z,61.64
2022-08-09T23:52:17.032Z,61.49
2022-08-09T23:54:50.581Z,61.67
2022-08-09T23:57:22.700Z,61.86
